Boo Sonier — WDG3281 — position and weather

sailwx.info

Track history (hours):
 
Tides and Currents Weather Stations Pressure Air Temp Water Temp Dewpoint Dewpoint Depression Visibility Wind Speed Wind Dir Waves Ship Positions

Boo Sonier

Owner: LeBeouf Bros. Towing, LLC, Houma, LA. More information available from US FCC via Universal Licensing System and Coast Guard Vessel Documentation Center.

Last reported at 2015-Apr-14 02:07 UTC. Time now 2015-Apr-18 07:12 UTC.
Position N 30°01' W 089°54'.

Length 21 m.

Type: Tug. MMSI: 367524420.

Date/timePositionNaut miles runAvg speedWind from/ knotsBaromVisibWave heightAir tempDewpointWater temp
2015-Apr-14 02:07N 30°01' W 089°54'5 0.2
2015-Apr-13 03:23N 29°60' W 089°59'0 0.0
2015-Apr-13 01:17N 29°60' W 089°59'0 0.0
2015-Apr-12 16:26N 29°60' W 089°59'1 0.1
2015-Apr-12 05:21N 29°60' W 090°01'3 1.3
2015-Apr-12 03:18N 29°57' W 090°01'1 0.0
2015-Apr-11 12:23N 29°57' W 090°02'1 0.0
2015-Apr-10 00:22N 29°57' W 090°01'3 0.7
2015-Apr-09 20:25N 29°54' W 089°59'34 2.6
2015-Apr-09 07:22N 29°34' W 090°30'4 4.3
2015-Apr-09 06:30N 29°34' W 090°34'1 1.4
2015-Apr-09 05:32N 29°35' W 090°36'0 0.3
2015-Apr-09 04:33N 29°34' W 090°36'2 1.9
2015-Apr-09 03:33N 29°35' W 090°38'5 4.5
2015-Apr-09 02:33N 29°37' W 090°43'5 4.5
2015-Apr-09 01:33N 29°33' W 090°45'6 5.5
2015-Apr-09 00:24N 29°32' W 090°53'  
2015-Apr-05 12:24N 29°32' W 090°51'5 6.1
2015-Apr-05 11:34N 29°33' W 090°46'4 4.1
2015-Apr-05 10:33N 29°36' W 090°43'3 3.1
2015-Apr-05 09:33N 29°36' W 090°39'2 1.7
2015-Apr-05 08:33N 29°35' W 090°37'1 1.4
2015-Apr-05 07:33N 29°35' W 090°36'0 0.5
2015-Apr-05 06:33N 29°35' W 090°36'4 3.9
2015-Apr-05 05:33N 29°36' W 090°41'1 1.2
2015-Apr-05 04:30N 29°37' W 090°42'0 0.0
2015-Apr-05 03:33N 29°37' W 090°42'0 0.0
2015-Apr-05 02:33N 29°37' W 090°42'0 0.0
2015-Apr-05 01:33N 29°37' W 090°42'0 0.0
2015-Apr-05 00:33N 29°37' W 090°42'0 0.0
2015-Apr-04 23:33N 29°37' W 090°42'0 0.0
2015-Apr-04 22:30N 29°37' W 090°42'0 0.0
2015-Apr-04 21:33N 29°37' W 090°42'0 0.0
2015-Apr-04 20:33N 29°37' W 090°42'0 0.0
2015-Apr-04 19:33N 29°37' W 090°42'0 0.0
2015-Apr-04 18:33N 29°37' W 090°42'0 0.0
2015-Apr-04 17:33N 29°37' W 090°42'0 0.0
2015-Apr-04 16:33N 29°37' W 090°42'0 0.0
2015-Apr-04 15:33N 29°37' W 090°42'0 0.0
2015-Apr-04 14:33N 29°37' W 090°42'0 0.1
2015-Apr-04 13:33N 29°37' W 090°42'4 4.3
2015-Apr-04 12:34N 29°35' W 090°37'1 1.4
2015-Apr-04 11:31N 29°35' W 090°36'0 0.1
2015-Apr-04 10:31N 29°35' W 090°36'3 3.0
2015-Apr-04 09:33N 29°34' W 090°33'  
Track history (hours):
 
Tides and Currents Weather Stations Pressure Air Temp Water Temp Dewpoint Dewpoint Depression Visibility Wind Speed Wind Dir Waves Ship Positions

Boo Sonier

Owner: LeBeouf Bros. Towing, LLC, Houma, LA. More information available from US FCC via Universal Licensing System and Coast Guard Vessel Documentation Center.

Last reported at 2015-Apr-14 02:07 UTC. Time now 2015-Apr-18 07:12 UTC.
Position N 30°01' W 089°54'.

Length 21 m.

Type: Tug. MMSI: 367524420.

Date/timePositionNaut miles runAvg speedWind from/ knotsBaromVisibWave heightAir tempDewpointWater temp
2015-Apr-14 02:07N 30°01' W 089°54'5 0.2
2015-Apr-13 03:23N 29°60' W 089°59'0 0.0
2015-Apr-13 01:17N 29°60' W 089°59'0 0.0
2015-Apr-12 16:26N 29°60' W 089°59'1 0.1
2015-Apr-12 05:21N 29°60' W 090°01'3 1.3
2015-Apr-12 03:18N 29°57' W 090°01'1 0.0
2015-Apr-11 12:23N 29°57' W 090°02'1 0.0
2015-Apr-10 00:22N 29°57' W 090°01'3 0.7
2015-Apr-09 20:25N 29°54' W 089°59'34 2.6
2015-Apr-09 07:22N 29°34' W 090°30'4 4.3
2015-Apr-09 06:30N 29°34' W 090°34'1 1.4
2015-Apr-09 05:32N 29°35' W 090°36'0 0.3
2015-Apr-09 04:33N 29°34' W 090°36'2 1.9
2015-Apr-09 03:33N 29°35' W 090°38'5 4.5
2015-Apr-09 02:33N 29°37' W 090°43'5 4.5
2015-Apr-09 01:33N 29°33' W 090°45'6 5.5
2015-Apr-09 00:24N 29°32' W 090°53'  
2015-Apr-05 12:24N 29°32' W 090°51'5 6.1
2015-Apr-05 11:34N 29°33' W 090°46'4 4.1
2015-Apr-05 10:33N 29°36' W 090°43'3 3.1
2015-Apr-05 09:33N 29°36' W 090°39'2 1.7
2015-Apr-05 08:33N 29°35' W 090°37'1 1.4
2015-Apr-05 07:33N 29°35' W 090°36'0 0.5
2015-Apr-05 06:33N 29°35' W 090°36'4 3.9
2015-Apr-05 05:33N 29°36' W 090°41'1 1.2
2015-Apr-05 04:30N 29°37' W 090°42'0 0.0
2015-Apr-05 03:33N 29°37' W 090°42'0 0.0
2015-Apr-05 02:33N 29°37' W 090°42'0 0.0
2015-Apr-05 01:33N 29°37' W 090°42'0 0.0
2015-Apr-05 00:33N 29°37' W 090°42'0 0.0
2015-Apr-04 23:33N 29°37' W 090°42'0 0.0
2015-Apr-04 22:30N 29°37' W 090°42'0 0.0
2015-Apr-04 21:33N 29°37' W 090°42'0 0.0
2015-Apr-04 20:33N 29°37' W 090°42'0 0.0
2015-Apr-04 19:33N 29°37' W 090°42'0 0.0
2015-Apr-04 18:33N 29°37' W 090°42'0 0.0
2015-Apr-04 17:33N 29°37' W 090°42'0 0.0
2015-Apr-04 16:33N 29°37' W 090°42'0 0.0
2015-Apr-04 15:33N 29°37' W 090°42'0 0.0
2015-Apr-04 14:33N 29°37' W 090°42'0 0.1
2015-Apr-04 13:33N 29°37' W 090°42'4 4.3
2015-Apr-04 12:34N 29°35' W 090°37'1 1.4
2015-Apr-04 11:31N 29°35' W 090°36'0 0.1
2015-Apr-04 10:31N 29°35' W 090°36'3 3.0
2015-Apr-04 09:33N 29°34' W 090°33'  

Dump ship's entire track history